Strona główna
METAR-TAF:

METAR-TAF

Lotnisko :

Entrammes

Laval, Francja

Szerokość geograficzna: 48-01-56N, Długość geograficzna: 000-44-34W, wysokość: 101 m

Aktualna obserwacja pogody

Raport powstał 19 minut temu, godzina 05:30 UTC
Wiatr 7 kt od północny wschód
Temperatura 15°C
Wilgotność 59%
Ciśnienie 1017 hPa
Widzialność 10 km lub więcej
Brak chmur poniżej 1500 m i brak chmur cumulonimbus

METAR: LFOV 310530Z AUTO 04007KT CAVOK 15/07 Q1017

czas: 07:49 (05:49 UTC)


TAF: brakujący

Obserwacja i prognoza pogody dla ponad 4000 lotnisk (raport METAR i TAF).

Dostępne stacje oznaczono żółtymi i czerwonymi punktami na mapie.

Najedź kursorem aby zobaczyć nazwę stacji.

Kliknij aby zobaczyć obserwacje i prognozy pogody.

Aby zmienić mapę: kliknij na zielony przycisk z czarnym krzyżykiem, aby powiększyć; na zielony przycisk z myślnikiem, aby pomniejszyć; na zielone strzałki, aby przejść do map sąsiednich.


METAR-TAF: